Tiempo atmosférico en la estación meteorológica de Motril, Puerto, Granada (3 m.)



Fecha
DESCASC
Temp. máxima en grados centígrados (hora)
DESCASC
Temp. mínima en grados centígrados (hora)
DESCASC
Temp. media en grados centígrados
DESCASC
Racha de viento máxima en m/sg (hora)
DESCASC
Velocidad máxima media en intervalos de 10 minutos(hora)
DESCASC
Precipitaciones diarias en mm
DESCASC
Precipitaciones de 00:00 a 06:00 en mm
DESCASC
Precipitaciones de 06:00 a 12:00 en mm
DESCASC
Precipitaciones de 12:00 a 18:00 en mm
DESCASC
Precipitaciones de 18:00 a 24:00 en mm
DESCASC
24-01-2021 -- (--) -- (--) -- 17.78 (06:50) 9.17 (11:00) 0 0 0 0 0
23-01-2021 -- (--) -- (--) -- 16.39 (15:40) 9.44 (15:20) 0 0 0 0 0
22-01-2021 -- (--) -- (--) -- 15.28 (16:30) 9.17 (16:30) 1.2 0.8 0.4 0 0
21-01-2021 -- (--) -- (--) -- 12.5 (16:10) 7.22 (15:20) 0 0 0 0 0
20-01-2021 -- (--) -- (--) -- 5.83 (14:00) 3.33 (13:50) 4 0 0 2 2
19-01-2021 -- (--) -- (--) -- 3.61 (13:50) 2.5 (13:50) 0.2 0 0 0.2 0
18-01-2021 -- (--) -- (--) -- 5.56 (12:10) 4.17 (12:10) 0 0 0 0 0
17-01-2021 -- (--) -- (--) -- 3.89 (13:20) 2.22 (15:40) 0.2 0 0 0 0.2
16-01-2021 -- (--) -- (--) -- 11.94 (14:00) 8.33 (14:50) 0.4 0 0.4 0 0
15-01-2021 -- (--) -- (--) -- 7.22 (15:10) 3.61 (14:50) 0 0 0 0 0
14-01-2021 -- (--) -- (--) -- 6.39 (10:00) 3.89 (08:40) 0 0 0 0 0
13-01-2021 -- (--) -- (--) -- 7.22 (14:50) 3.61 (12:50) 0 0 0 0 0
12-01-2021 -- (--) -- (--) -- 5 (13:50) 2.5 (13:50) 0 0 0 0 0
11-01-2021 -- (--) -- (--) -- 8.33 (11:50) 5.83 (16:00) 2.8 2 0.8 0 0
10-01-2021 -- (--) -- (--) -- 6.67 (06:20) 3.89 (06:30) 6.2 3.4 2.8 0 0
09-01-2021 -- (--) -- (--) -- 16.67 (11:40) 10.83 (00:10) 2.8 0.2 0 0 2.6
08-01-2021 -- (--) -- (--) -- 19.44 (23:10) 13.33 (23:10) 16.8 9 5.6 1.8 0.4
07-01-2021 -- (--) -- (--) -- 7.22 (23:59) 4.72 (23:59) 9.8 3.6 0 0.4 5.8
06-01-2021 -- (--) -- (--) -- 10.28 (13:10) 6.67 (15:40) 1 0 0 0 1
05-01-2021 -- (--) -- (--) -- 8.61 (16:30) 6.11 (15:10) 0 0 0 0 0
04-01-2021 -- (--) -- (--) -- 14.17 (15:10) 7.22 (15:10) 0 0 0 0 0
03-01-2021 -- (--) -- (--) -- 12.78 (00:20) 8.06 (00:30) 3.2 0 0 3.2 0
02-01-2021 -- (--) -- (--) -- 13.61 (23:59) 9.17 (23:59) 0 0 0 0 0
01-01-2021 -- (--) -- (--) -- 14.72 (08:20) 8.61 (09:10) 0 0 0 0 0
31-12-2020 -- (--) -- (--) -- 13.33 (19:30) 8.61 (21:40) 0 0 0 0 0
30-12-2020 -- (--) -- (--) -- 12.5 (02:10) 7.22 (00:30) 0 0 0 0 0
29-12-2020 -- (--) -- (--) -- 15.83 (02:10) 9.44 (09:40) 0 0 0 0 0
28-12-2020 -- (--) -- (--) -- 15.56 (11:50) 8.33 (09:50) 0 0 0 0 0

Gráficas

Temp. máximas Temp. mínimas Temp. medias Precipitaciones Rachas de viento máximas Velocidades máximas media en intervalos de 10 minutos

Datos horarios

Fecha y hora oficial Temperatura (ºC) Velocidad del viento (km/h) Dirección del viento Racha (km/h) Dirección de racha Precipitación (mm) Presión (hPa) Tendencia (hPa) Humedad (%)
2021-01-26 23:00:00 15.2 4 Sudeste 13 Sudoeste 0 -- -- 80
2021-01-26 22:00:00 14.9 0 Calma 4 Oeste 0 -- -- 82
2021-01-26 21:00:00 15.5 0 Calma 5 Noroeste 0 -- -- 81
2021-01-26 20:00:00 15.8 3 Sur 8 Sur 0 -- -- 79
2021-01-26 19:00:00 17 0 Calma 6 Sudeste 0 -- -- 73
2021-01-26 18:00:00 17.4 2 Este 8 Sur 0 -- -- 71
2021-01-26 17:00:00 18.3 6 Sudoeste 12 Sudoeste 0 -- -- 70
2021-01-26 16:00:00 19.4 8 Sur 18 Sudoeste 0 -- -- 65
2021-01-26 15:00:00 19.5 9 Sudoeste 17 Sur 0 -- -- 67
2021-01-26 14:00:00 22.4 5 Oeste 26 Oeste 0 -- -- 52
2021-01-26 13:00:00 21.4 6 Oeste 26 Noroeste 0 -- -- 55
2021-01-26 12:00:00 21.3 10 Noroeste 31 Oeste 0 -- -- 54
2021-01-26 11:00:00 19.7 7 Noroeste 32 Norte 0 -- -- 62
2021-01-26 10:00:00 20.2 13 Norte 25 Norte 0 -- -- 56
2021-01-26 09:00:00 19.2 9 Norte 31 Norte 0 -- -- 57
2021-01-26 08:00:00 18.3 14 Norte 32 Norte 0 -- -- 60
2021-01-26 07:00:00 19.2 22 Noroeste 41 Noroeste 0 -- -- 56
2021-01-26 06:00:00 17.5 9 Norte 18 Norte 0 -- -- 66
2021-01-26 05:00:00 16.9 4 Norte 21 Oeste 0 -- -- 71
2021-01-26 04:00:00 16.8 15 Oeste 38 Oeste 0 -- -- 73
2021-01-26 03:00:00 16.7 18 Oeste 33 Oeste 0 -- -- 73
2021-01-26 02:00:00 16.9 21 Oeste 36 Oeste 0 -- -- 72
2021-01-26 01:00:00 16.8 19 Oeste 37 Noroeste 0 -- -- 72
2021-01-26 00:00:00 17.6 21 Oeste 41 Oeste 0 -- -- 67
2021-01-25 23:00:00 17.9 18 Noroeste 37 Oeste 0 -- -- 64
2021-01-25 22:00:00 18.3 22 Oeste 44 Oeste 0 -- -- 63
2021-01-25 21:00:00 18.1 26 Oeste 45 Oeste 0 -- -- 66
2021-01-25 20:00:00 17.7 19 Oeste 34 Oeste 0 -- -- 71
2021-01-25 19:00:00 16.8 12 Oeste 48 Oeste 0 -- -- 81
2021-01-25 18:00:00 16.1 22 Oeste 48 Oeste 0 -- -- 86
2021-01-25 17:00:00 16.7 27 Oeste 48 Oeste 0 -- -- 83
2021-01-25 16:00:00 16.4 25 Oeste 49 Oeste 0 -- -- 84
2021-01-25 15:00:00 16.9 24 Oeste 48 Oeste 0 -- -- 82
2021-01-25 14:00:00 16.8 26 Oeste 52 Oeste 0 -- -- 78
2021-01-25 13:00:00 17.5 24 Oeste 41 Oeste 0 -- -- 70
2021-01-25 12:00:00 17.7 17 Oeste 36 Oeste 0 -- -- 68
2021-01-25 11:00:00 17.3 13 Oeste 32 Oeste 0 -- -- 68
2021-01-25 10:00:00 16.7 15 Oeste 34 Oeste 0 -- -- 68
2021-01-25 09:00:00 16.5 9 Oeste 28 Oeste 0 -- -- 64
2021-01-25 08:00:00 16 10 Oeste 21 Oeste 0 -- -- 61
2021-01-25 07:00:00 15.9 13 Oeste 37 Noroeste 0 -- -- 64
2021-01-25 06:00:00 17.6 19 Noroeste 40 Noroeste 0 -- -- 52
2021-01-25 05:00:00 15.7 17 Oeste 30 Oeste 0 -- -- 64
2021-01-25 04:00:00 15.5 11 Noroeste 26 Oeste 0 -- -- 64
2021-01-25 03:00:00 15.3 12 Oeste 24 Oeste 0 -- -- 68
2021-01-25 02:00:00 17.2 11 Noroeste 35 Norte 0 -- -- 49
2021-01-25 01:00:00 17.2 13 Noroeste 23 Noroeste 0 -- -- 49
2021-01-25 00:00:00 17.1 12 Noroeste 30 Noroeste 0 -- -- 50
2021-01-24 23:00:00 17.8 14 Noroeste 33 Norte 0 -- -- 46
2021-01-24 22:00:00 17.8 11 Norte 33 Noroeste 0 -- -- 48
2021-01-24 21:00:00 17.3 8 Noroeste 21 Oeste 0 -- -- 53
2021-01-24 20:00:00 16.1 12 Oeste 24 Oeste 0 -- -- 70
2021-01-24 19:00:00 16 16 Oeste 27 Noroeste 0 -- -- 77
2021-01-24 18:00:00 15.9 14 Noroeste 40 Oeste 0 -- -- 81
2021-01-24 17:00:00 16.4 18 Oeste 34 Oeste 0 -- -- 80
2021-01-24 16:00:00 16.7 20 Oeste 35 Oeste 0 -- -- 80
2021-01-24 15:00:00 17.4 18 Oeste 39 Oeste 0 -- -- 75
2021-01-24 14:00:00 17.3 22 Oeste 53 Oeste 0 -- -- 82
2021-01-24 13:00:00 17.4 29 Oeste 53 Oeste 0 -- -- 79
2021-01-24 12:00:00 16.9 30 Oeste 54 Oeste 0 -- -- 80
2021-01-24 11:00:00 16 33 Oeste 57 Oeste 0 -- -- 85
2021-01-24 10:00:00 15.4 29 Oeste 54 Oeste 0 -- -- 89
2021-01-24 09:00:00 14.8 29 Oeste 55 Oeste 0 -- -- 92
2021-01-24 08:00:00 14.7 31 Oeste 59 Oeste 0 -- -- 91
2021-01-24 07:00:00 14.8 32 Oeste 64 Oeste 0 -- -- 89
2021-01-24 06:00:00 14.7 25 Oeste 46 Oeste 0 -- -- 89
2021-01-24 05:00:00 14.5 27 Oeste 43 Oeste 0 -- -- 90
2021-01-24 04:00:00 14.6 24 Noroeste 52 Oeste 0 -- -- 89
2021-01-24 03:00:00 14.3 26 Oeste 46 Noroeste 0 -- -- 90
2021-01-24 02:00:00 14.3 27 Oeste 48 Oeste 0 -- -- 88
2021-01-24 01:00:00 14.4 24 Oeste 48 Oeste 0 -- -- 83
2021-01-24 00:00:00 14.5 28 Oeste 49 Oeste 0 -- -- 83
2021-01-23 23:00:00 14.7 26 Oeste 48 Oeste 0 -- -- 79
2021-01-23 22:00:00 14.9 25 Oeste 48 Oeste 0 -- -- 78
2021-01-23 21:00:00 15.1 27 Oeste 48 Oeste 0 -- -- 78
2021-01-23 20:00:00 15.4 27 Oeste 53 Oeste 0 -- -- 77
2021-01-23 19:00:00 15.4 26 Oeste 44 Sudoeste 0 -- -- 77
2021-01-23 18:00:00 15.4 23 Oeste 43 Noroeste 0 -- -- 77
2021-01-23 17:00:00 15.9 23 Oeste 52 Oeste 0 -- -- 76
2021-01-23 16:00:00 17 27 Oeste 59 Oeste 0 -- -- 65
2021-01-23 15:00:00 16.7 27 Oeste 58 Oeste 0 -- -- 62
2021-01-23 14:00:00 18 23 Oeste 45 Noroeste 0 -- -- 46
2021-01-23 13:00:00 18.1 19 Noroeste 45 Noroeste 0 -- -- 40
2021-01-23 12:00:00 17.1 19 Noroeste 34 Noroeste 0 -- -- 43
2021-01-23 11:00:00 16.2 17 Noroeste 51 Noroeste 0 -- -- 42
2021-01-23 10:00:00 15.3 22 Noroeste 52 Noroeste 0 -- -- 44
2021-01-23 09:00:00 14.9 28 Noroeste 54 Noroeste 0 -- -- 46
2021-01-23 08:00:00 14.2 19 Noroeste 42 Noroeste 0 -- -- 51
2021-01-23 07:00:00 14.3 18 Noroeste 39 Noroeste 0 -- -- 51
2021-01-23 06:00:00 14.7 12 Noroeste 31 Noroeste 0 -- -- 52
2021-01-23 05:00:00 14.9 14 Noroeste 39 Noroeste 0 -- -- 51
2021-01-23 04:00:00 15.6 22 Noroeste 49 Noroeste 0 -- -- 48
2021-01-23 03:00:00 15.8 22 Noroeste 40 Noroeste 0 -- -- 47
2021-01-23 02:00:00 15.3 17 Noroeste 54 Noroeste 0 -- -- 50
2021-01-23 01:00:00 15.8 23 Noroeste 45 Noroeste 0 -- -- 47
2021-01-23 00:00:00 15.7 23 Noroeste 49 Noroeste 0 -- -- 49
2021-01-22 23:00:00 16.2 23 Noroeste 49 Noroeste 0 -- -- 45
2021-01-22 22:00:00 15.9 22 Oeste 39 Oeste 0 -- -- 51
2021-01-22 21:00:00 16.7 22 Noroeste 48 Noroeste 0 -- -- 43
2021-01-22 20:00:00 16.9 22 Noroeste 42 Noroeste 0 -- -- 43
2021-01-22 19:00:00 17.4 17 Noroeste 39 Noroeste 0 -- -- 40
2021-01-22 18:00:00 18.5 25 Noroeste 54 Noroeste 0 -- -- 36
2021-01-22 17:00:00 18.6 21 Oeste 55 Noroeste 0 -- -- 45
2021-01-22 16:00:00 19.7 24 Noroeste 49 Oeste 0 -- -- 34
2021-01-22 15:00:00 20.3 24 Noroeste 48 Noroeste 0 -- -- 33
2021-01-22 14:00:00 21.5 22 Noroeste 51 Oeste 0 -- -- 26
2021-01-22 13:00:00 19.1 20 Oeste 43 Oeste 0 -- -- 50
2021-01-22 12:00:00 17.7 10 Sudeste 16 Sur 0 -- -- 74
2021-01-22 11:00:00 18 6 Sudeste 13 Sudeste 0 -- -- 78
2021-01-22 10:00:00 17.4 3 Este 26 Oeste 0 -- -- 81
2021-01-22 09:00:00 14.9 12 Oeste 27 Oeste 0 -- -- 90
2021-01-22 08:00:00 14.9 9 Noroeste 33 Oeste 0 -- -- 91
2021-01-22 07:00:00 14.9 14 Oeste 27 Noroeste 0.4 -- -- 91
2021-01-22 06:00:00 14.5 11 Oeste 24 Oeste 0.8 -- -- 89
2021-01-22 05:00:00 15.7 14 Oeste 24 Noroeste 0 -- -- 78
2021-01-22 04:00:00 15.2 10 Oeste 21 Noroeste 0 -- -- 73
2021-01-22 03:00:00 14.9 10 Oeste 20 Oeste 0 -- -- 79
2021-01-22 02:00:00 14.7 11 Oeste 23 Oeste 0 -- -- 82
2021-01-22 01:00:00 14.9 10 Oeste 30 Oeste 0 -- -- 80
2021-01-22 00:00:00 14.6 11 Noroeste 27 Noroeste 0 -- -- 83
2021-01-21 23:00:00 15.1 18 Oeste 36 Oeste 0 -- -- 80
2021-01-21 22:00:00 15.2 21 Oeste 45 Oeste 0 -- -- 81
2021-01-21 21:00:00 15.4 21 Oeste 38 Oeste 0 -- -- 80
2021-01-21 20:00:00 15.6 21 Oeste 38 Oeste 0 -- -- 78
2021-01-21 19:00:00 15.5 22 Oeste 36 Noroeste 0 -- -- 80
2021-01-21 18:00:00 15.3 21 Oeste 42 Oeste 0 -- -- 83
2021-01-21 17:00:00 15.6 22 Oeste 45 Oeste 0 -- -- 82
2021-01-21 16:00:00 16.2 24 Oeste 45 Oeste 0 -- -- 80
2021-01-21 15:00:00 16 23 Oeste 44 Oeste 0 -- -- 76
2021-01-21 14:00:00 16.4 23 Oeste 41 Oeste 0 -- -- 74
2021-01-21 13:00:00 16 19 Oeste 35 Oeste 0 -- -- 80
2021-01-21 12:00:00 15.9 13 Oeste 26 Oeste 0 -- -- 77
2021-01-21 11:00:00 15.6 10 Oeste 23 Oeste 0 -- -- 69
2021-01-21 10:00:00 14.6 9 Oeste 18 Oeste 0 -- -- 76
2021-01-21 09:00:00 13.5 10 Oeste 22 Oeste 0 -- -- 83
2021-01-21 08:00:00 12.2 6 Noroeste 22 Oeste 0 -- -- 82
2021-01-21 07:00:00 13.2 9 Oeste 17 Oeste 0 -- -- 74
2021-01-21 06:00:00 12 5 Noroeste 13 Noroeste 0 -- -- 71
2021-01-21 05:00:00 10.9 5 Noroeste 12 Noroeste 0 -- -- 78
2021-01-21 04:00:00 12.1 5 Oeste 20 Oeste 0 -- -- 79
2021-01-21 03:00:00 10.9 13 Noroeste 25 Oeste 0 -- -- 89
2021-01-21 02:00:00 11.9 11 Noroeste 24 Oeste 0 -- -- 90
2021-01-21 01:00:00 12.1 8 Noroeste 19 Oeste 0 -- -- 90
2021-01-21 00:00:00 12.1 8 Oeste 15 Oeste 0 -- -- 91
2021-01-20 23:00:00 11.9 4 Noroeste 10 Oeste 0 -- -- 93
2021-01-20 22:00:00 11.8 0 Calma 8 Norte 0 -- -- 93
2021-01-20 21:00:00 11.9 0 Calma 8 Este 0 -- -- 92
2021-01-20 20:00:00 12 4 Nordeste 8 Nordeste 1.2 -- -- 91
2021-01-20 19:00:00 12.6 4 Norte 7 Nordeste 0.8 -- -- 90
2021-01-20 18:00:00 13.1 0 Calma 4 Oeste 1.6 -- -- 88
2021-01-20 17:00:00 13.8 0 Calma 14 Sudoeste 0.4 -- -- 83
2021-01-20 16:00:00 14.4 6 Oeste 14 Oeste 0 -- -- 77
2021-01-20 15:00:00 13.7 6 Oeste 18 Oeste 0 -- -- 77
2021-01-20 14:00:00 13.8 10 Oeste 21 Oeste 0 -- -- 75
2021-01-20 13:00:00 14 6 Noroeste 17 Oeste 0 -- -- 72
2021-01-20 12:00:00 13.3 3 Oeste 6 Noroeste 0 -- -- 74
2021-01-20 11:00:00 11.8 3 Noroeste 6 Oeste 0 -- -- 70
2021-01-20 10:00:00 10.5 0 Calma 8 Norte 0 -- -- 69
2021-01-20 09:00:00 9.4 2 Sur 6 Sudoeste 0 -- -- 72
2021-01-20 08:00:00 7.7 3 Noroeste 10 Norte 0 -- -- 74
2021-01-20 07:00:00 7.2 3 Oeste 5 Noroeste 0 -- -- 78
2021-01-20 06:00:00 7.3 3 Norte 7 Noroeste 0 -- -- 80
2021-01-20 05:00:00 7.2 2 Noroeste 5 Noroeste 0 -- -- 82
2021-01-20 04:00:00 7.1 0 Calma 6 Noroeste 0 -- -- 88
2021-01-20 03:00:00 7.9 3 Nordeste 6 Nordeste 0 -- -- 86
2021-01-20 02:00:00 8 2 Noroeste 4 Noroeste 0 -- -- 88
2021-01-20 01:00:00 8.8 3 Noroeste 10 Nordeste 0 -- -- 85
2021-01-20 00:00:00 9.5 4 Nordeste 8 Nordeste 0 -- -- 86
2021-01-19 23:00:00 10 2 Norte 7 Nordeste 0 -- -- 87
2021-01-19 22:00:00 11 0 Calma 5 Norte 0 -- -- 85
2021-01-19 21:00:00 11 0 Calma 5 Nordeste 0 -- -- 84
2021-01-19 20:00:00 11.4 3 Nordeste 5 Nordeste 0 -- -- 82
2021-01-19 19:00:00 12.8 0 Calma 5 Oeste 0 -- -- 76
2021-01-19 18:00:00 13.9 3 Sudoeste 8 Sudoeste 0 -- -- 73
2021-01-19 17:00:00 15.8 5 Sudoeste 9 Sudoeste 0 -- -- 66
2021-01-19 16:00:00 15.6 5 Sur 10 Sur 0 -- -- 68
2021-01-19 15:00:00 15.8 4 Sur 11 Sur 0.2 -- -- 69
2021-01-19 14:00:00 15.3 8 Sur 13 Sur 0 -- -- 71
2021-01-19 13:00:00 15.8 6 Sudeste 9 Sur 0 -- -- 71
2021-01-19 12:00:00 16.9 4 Sudoeste 7 Sudoeste 0 -- -- 62
2021-01-19 11:00:00 16.8 0 Calma 3 Oeste 0 -- -- 60
2021-01-19 10:00:00 11.7 0 Calma 5 Norte 0 -- -- 67
2021-01-19 09:00:00 8.6 0 Calma 4 Nordeste 0 -- -- 77
2021-01-19 08:00:00 6.4 3 Norte 4 Nordeste 0 -- -- 80
2021-01-19 07:00:00 6.8 0 Calma 3 Norte 0 -- -- 79
2021-01-19 06:00:00 7.7 0 Calma 4 Nordeste 0 -- -- 77
2021-01-19 05:00:00 8.8 3 Nordeste 12 Nordeste 0 -- -- 73
2021-01-19 04:00:00 8.2 0 Calma 5 Nordeste 0 -- -- 75
2021-01-19 03:00:00 9 3 Nordeste 8 Norte 0 -- -- 75
2021-01-19 02:00:00 8.2 3 Norte 7 Nordeste 0 -- -- 78
2021-01-19 01:00:00 8.6 4 Nordeste 6 Nordeste 0 -- -- 82
2021-01-19 00:00:00 8.8 4 Nordeste 5 Nordeste 0 -- -- 82
2021-01-18 23:00:00 9.4 0 Calma 3 Norte 0 -- -- 81
2021-01-18 22:00:00 9.9 2 Norte 6 Norte 0 -- -- 80
2021-01-18 21:00:00 11.1 3 Este 6 Este 0 -- -- 80
2021-01-18 20:00:00 11.7 2 Este 6 Nordeste 0 -- -- 77
2021-01-18 19:00:00 13.1 3 Noroeste 7 Oeste 0 -- -- 73
2021-01-18 18:00:00 14.5 3 Sudoeste 9 Sudoeste 0 -- -- 72
2021-01-18 17:00:00 16.5 5 Sudoeste 12 Sudoeste 0 -- -- 70
2021-01-18 16:00:00 16.9 5 Sudoeste 10 Sudoeste 0 -- -- 67
2021-01-18 15:00:00 17.2 3 Sur 10 Sur 0 -- -- 62
2021-01-18 14:00:00 17 5 Sudoeste 10 Sur 0 -- -- 64
2021-01-18 13:00:00 15.7 9 Sudeste 20 Sudeste 0 -- -- 71
2021-01-18 12:00:00 17 5 Sudeste 19 Sudeste 0 -- -- 63
2021-01-18 11:00:00 17.8 0 Calma 3 Oeste 0 -- -- 52
2021-01-18 10:00:00 12.8 3 Norte 9 Nordeste 0 -- -- 61
2021-01-18 09:00:00 9.9 0 Calma 4 Nordeste 0 -- -- 74
2021-01-18 08:00:00 6.6 3 Norte 6 Norte 0 -- -- 78
2021-01-18 07:00:00 8 2 Norte 8 Este 0 -- -- 72
2021-01-18 06:00:00 6.8 0 Calma 6 Noroeste 0 -- -- 80
2021-01-18 05:00:00 6.6 3 Noroeste 6 Noroeste 0 -- -- 82
2021-01-18 04:00:00 7.4 0 Calma 3 Norte 0 -- -- 82
2021-01-18 03:00:00 7.2 0 Calma 4 Noroeste 0 -- -- 83
2021-01-18 02:00:00 7.8 0 Calma 6 Nordeste 0 -- -- 85
2021-01-18 01:00:00 9.2 4 Nordeste 7 Noroeste 0 -- -- 87
2021-01-18 00:00:00 9.5 3 Norte 6 Norte 0 -- -- 86
2021-01-17 23:00:00 9.3 3 Norte 5 Norte 0 -- -- 87
2021-01-17 22:00:00 10.2 0 Calma 8 Nordeste 0 -- -- 85
2021-01-17 21:00:00 10.2 0 Calma 5 Nordeste 0 -- -- 86
2021-01-17 20:00:00 11.4 3 Este 4 Sudeste 0.2 -- -- 84
2021-01-17 19:00:00 12.3 2 Noroeste 10 Noroeste 0 -- -- 81
2021-01-17 18:00:00 13.6 6 Oeste 11 Noroeste 0 -- -- 74
2021-01-17 17:00:00 14.9 7 Oeste 13 Oeste 0 -- -- 65
2021-01-17 16:00:00 15.4 7 Sudoeste 14 Sudoeste 0 -- -- 66
2021-01-17 15:00:00 16.1 5 Sudoeste 12 Sudoeste 0 -- -- 64
2021-01-17 14:00:00 15.5 7 Sudoeste 14 Sudoeste 0 -- -- 63
2021-01-17 13:00:00 15.8 4 Sur 9 Sudoeste 0 -- -- 48
2021-01-17 12:00:00 15.5 3 Sudeste 5 Sur 0 -- -- 54
2021-01-17 11:00:00 15.6 3 Sudoeste 4 Sudoeste 0 -- -- 47
2021-01-17 10:00:00 11.7 0 Calma 5 Noroeste 0 -- -- 62
2021-01-17 09:00:00 7.8 0 Calma 4 Norte 0 -- -- 78
2021-01-17 08:00:00 5.7 2 Norte 6 Noroeste 0 -- -- 82
2021-01-17 07:00:00 5.7 3 Norte 4 Norte 0 -- -- 82
2021-01-17 06:00:00 6.5 0 Calma 4 Norte 0 -- -- 82
2021-01-17 05:00:00 7.5 0 Calma 7 Nordeste 0 -- -- 79
2021-01-17 04:00:00 7.4 2 Nordeste 6 Nordeste 0 -- -- 81
2021-01-17 03:00:00 8.2 4 Nordeste 8 Nordeste 0 -- -- 81
2021-01-17 02:00:00 7.6 0 Calma 4 Noroeste 0 -- -- 80
2021-01-17 01:00:00 9.2 5 Nordeste 9 Nordeste 0 -- -- 75
2021-01-17 00:00:00 9.1 3 Nordeste 6 Nordeste 0 -- -- 78
2021-01-16 23:00:00 9.2 0 Calma 5 Nordeste 0 -- -- 76
2021-01-16 22:00:00 9.9 5 Nordeste 8 Nordeste 0 -- -- 72
2021-01-16 21:00:00 10.5 4 Nordeste 8 Nordeste 0 -- -- 72
2021-01-16 20:00:00 11.3 0 Calma 17 Sudeste 0 -- -- 72
2021-01-16 19:00:00 13.5 12 Sudeste 21 Este 0 -- -- 70
2021-01-16 18:00:00 14.1 11 Sudeste 19 Sudeste 0 -- -- 66
2021-01-16 17:00:00 15.1 13 Sudeste 33 Sudeste 0 -- -- 53
2021-01-16 16:00:00 14.7 25 Sudeste 40 Sudeste 0 -- -- 58
2021-01-16 15:00:00 14.9 29 Sudeste 43 Sudeste 0 -- -- 67
2021-01-16 14:00:00 15.5 29 Sudeste 43 Sudeste 0 -- -- 56
2021-01-16 13:00:00 16 18 Este 28 Sudeste 0 -- -- 49
2021-01-16 12:00:00 15.3 15 Sudeste 26 Sudeste 0 -- -- 58
2021-01-16 11:00:00 16.1 3 Sur 6 Sur 0 -- -- 53
2021-01-16 10:00:00 13.4 0 Calma 8 Sudeste 0 -- -- 55
2021-01-16 09:00:00 9.9 3 Sur 8 Sudeste 0 -- -- 68
2021-01-16 08:00:00 7.6 2 Nordeste 12 Noroeste 0 -- -- 59
2021-01-16 07:00:00 8.6 0 Calma 7 Sudoeste 0.4 -- -- 69
2021-01-16 06:00:00 8.9 3 Sudeste 8 Sudeste 0 -- -- 70
2021-01-16 05:00:00 10.1 3 Sur 7 Sur 0 -- -- 66
2021-01-16 04:00:00 11.4 3 Norte 15 Oeste 0 -- -- 47
2021-01-16 03:00:00 13.5 6 Oeste 23 Oeste 0 -- -- 33
2021-01-16 02:00:00 13 5 Norte 15 Noroeste 0 -- -- 38
2021-01-16 01:00:00 9.3 2 Oeste 10 Nordeste 0 -- -- 74
2021-01-16 00:00:00 8.1 5 Noroeste 14 Norte 0 -- -- 79
2021-01-15 23:00:00 8.6 3 Este 8 Norte 0 -- -- 77
2021-01-15 22:00:00 9.2 0 Calma 4 Nordeste 0 -- -- 76
2021-01-15 21:00:00 10 0 Calma 8 Nordeste 0 -- -- 77
2021-01-15 20:00:00 11.1 3 Nordeste 9 Nordeste 0 -- -- 75
2021-01-15 19:00:00 12.5 3 Este 4 Este 0 -- -- 71
2021-01-15 18:00:00 13.6 3 Oeste 9 Oeste 0 -- -- 66
2021-01-15 17:00:00 15.7 5 Oeste 14 Oeste 0 -- -- 60
2021-01-15 16:00:00 16 5 Sudoeste 26 Oeste 0 -- -- 61
2021-01-15 15:00:00 15.4 12 Oeste 24 Sudoeste 0 -- -- 60
2021-01-15 14:00:00 15.6 8 Oeste 17 Oeste 0 -- -- 61
2021-01-15 13:00:00 15.9 6 Oeste 17 Sudoeste 0 -- -- 51
2021-01-15 12:00:00 15.3 8 Oeste 18 Oeste 0 -- -- 60
2021-01-15 11:00:00 15.4 3 Sudeste 6 Sudeste 0 -- -- 50
2021-01-15 10:00:00 13.3 3 Noroeste 16 Noroeste 0 -- -- 41
2021-01-15 09:00:00 8.4 6 Noroeste 12 Noroeste 0 -- -- 65
2021-01-15 08:00:00 6.8 3 Noroeste 6 Norte 0 -- -- 77
2021-01-15 07:00:00 6.9 0 Calma 5 Noroeste 0 -- -- 76
2021-01-15 06:00:00 7.4 2 Nordeste 5 Noroeste 0 -- -- 72
2021-01-15 05:00:00 8.8 0 Calma 11 Noroeste 0 -- -- 66
2021-01-15 04:00:00 12.8 7 Norte 19 Norte 0 -- -- 48
2021-01-15 03:00:00 11.8 7 Nordeste 13 Nordeste 0 -- -- 53
2021-01-15 02:00:00 10 0 Calma 5 Norte 0 -- -- 68
2021-01-15 01:00:00 9.9 3 Noroeste 22 Noroeste 0 -- -- 62
2021-01-15 00:00:00 12.3 11 Oeste 22 Oeste 0 -- -- 48
2021-01-14 23:00:00 14.4 13 Noroeste 21 Noroeste 0 -- -- 39
2021-01-14 22:00:00 14.5 10 Noroeste 20 Noroeste 0 -- -- 40
2021-01-14 21:00:00 14.7 11 Noroeste 19 Oeste 0 -- -- 40
2021-01-14 20:00:00 11.4 5 Noroeste 9 Oeste 0 -- -- 65
2021-01-14 19:00:00 12.6 2 Noroeste 4 Norte 0 -- -- 64
2021-01-14 18:00:00 14.7 2 Oeste 8 Oeste 0 -- -- 55
2021-01-14 17:00:00 17 3 Noroeste 12 Noroeste 0 -- -- 49
2021-01-14 16:00:00 17 3 Oeste 10 Sudoeste 0 -- -- 45
2021-01-14 15:00:00 16 5 Sur 9 Sur 0 -- -- 49
2021-01-14 14:00:00 16.1 5 Sur 12 Sudoeste 0 -- -- 56
2021-01-14 13:00:00 16.2 5 Sudoeste 15 Sudeste 0 -- -- 58
2021-01-14 12:00:00 15.2 10 Sudeste 18 Sudeste 0 -- -- 55
2021-01-14 11:00:00 15.1 3 Sudeste 18 Oeste 0 -- -- 44
2021-01-14 10:00:00 12.3 13 Oeste 23 Noroeste 0 -- -- 40
2021-01-14 09:00:00 10.5 13 Oeste 22 Oeste 0 -- -- 44
2021-01-14 08:00:00 5.9 0 Calma 9 Nordeste 0 -- -- 80
2021-01-14 07:00:00 6 2 Sudeste 6 Noroeste 0 -- -- 79
2021-01-14 06:00:00 5.2 0 Calma 6 Nordeste 0 -- -- 78
2021-01-14 05:00:00 5.4 0 Calma 4 Nordeste 0 -- -- 80
2021-01-14 04:00:00 5.2 0 Calma 6 Norte 0 -- -- 80
2021-01-14 03:00:00 5.8 2 Nordeste 9 Oeste 0 -- -- 78
2021-01-14 02:00:00 6.5 0 Calma 3 Nordeste 0 -- -- 78
2021-01-14 01:00:00 7.4 0 Calma 5 Sudeste 0 -- -- 79
2021-01-14 00:00:00 8 0 Calma 6 Nordeste 0 -- -- 77
2021-01-13 23:00:00 7.8 2 Norte 4 Norte 0 -- -- 81
2021-01-13 22:00:00 8.1 0 Calma 4 Norte 0 -- -- 84
2021-01-13 21:00:00 8.9 3 Norte 7 Nordeste 0 -- -- 80
2021-01-13 20:00:00 10.2 4 Nordeste 8 Nordeste 0 -- -- 76
2021-01-13 19:00:00 11.5 0 Calma 9 Oeste 0 -- -- 69
2021-01-13 18:00:00 12.8 6 Oeste 18 Oeste 0 -- -- 66
2021-01-13 17:00:00 14.5 10 Oeste 20 Oeste 0 -- -- 62
2021-01-13 16:00:00 15.2 6 Oeste 23 Oeste 0 -- -- 61
2021-01-13 15:00:00 14.5 11 Oeste 26 Oeste 0 -- -- 57
2021-01-13 14:00:00 14.1 11 Oeste 23 Oeste 0 -- -- 56
2021-01-13 13:00:00 14.5 9 Oeste 25 Oeste 0 -- -- 59
2021-01-13 12:00:00 14.1 8 Oeste 21 Oeste 0 -- -- 45
2021-01-13 11:00:00 13.7 6 Oeste 17 Noroeste 0 -- -- 42
2021-01-13 10:00:00 11.8 0 Calma 10 Oeste 0 -- -- 60
2021-01-13 09:00:00 6.3 3 Noroeste 6 Noroeste 0 -- -- 72
2021-01-13 08:00:00 4.6 0 Calma 5 Oeste 0 -- -- 78
2021-01-13 07:00:00 4.6 2 Norte 5 Oeste 0 -- -- 77
2021-01-13 06:00:00 5.5 3 Noroeste 5 Noroeste 0 -- -- 73
2021-01-13 05:00:00 6.7 0 Calma 2 Este 0 -- -- 74
2021-01-13 04:00:00 6.6 0 Calma 7 Nordeste 0 -- -- 72
2021-01-13 03:00:00 6.1 0 Calma 5 Oeste 0 -- -- 77
2021-01-13 02:00:00 6 0 Calma 4 Noroeste 0 -- -- 78
2021-01-13 01:00:00 6.6 2 Sudoeste 6 Nordeste 0 -- -- 76
2021-01-13 00:00:00 7.1 2 Oeste 4 Oeste 0 -- -- 74
2021-01-12 23:00:00 7.7 0 Calma 6 Norte 0 -- -- 73
2021-01-12 22:00:00 8.2 2 Noroeste 6 Norte 0 -- -- 74
2021-01-12 21:00:00 8.3 2 Norte 4 Noroeste 0 -- -- 75
2021-01-12 20:00:00 9.4 2 Norte 10 Nordeste 0 -- -- 68
2021-01-12 19:00:00 11.4 2 Noroeste 15 Oeste 0 -- -- 63
2021-01-12 18:00:00 12.5 6 Oeste 15 Oeste 0 -- -- 57
2021-01-12 17:00:00 14 8 Oeste 17 Sudoeste 0 -- -- 53
2021-01-12 16:00:00 15.1 5 Sudoeste 14 Sudoeste 0 -- -- 52
2021-01-12 15:00:00 14.6 7 Sudoeste 15 Sudoeste 0 -- -- 54
2021-01-12 14:00:00 14.4 8 Sudoeste 18 Sudoeste 0 -- -- 49
2021-01-12 13:00:00 14.5 6 Sur 13 Sudoeste 0 -- -- 46
2021-01-12 12:00:00 15 5 Sudoeste 9 Noroeste 0 -- -- 40
2021-01-12 11:00:00 14.5 3 Norte 15 Norte 0 -- -- 43
2021-01-12 10:00:00 11.9 5 Noroeste 12 Norte 0 -- -- 50
2021-01-12 09:00:00 10.1 6 Noroeste 15 Oeste 0 -- -- 55
2021-01-12 08:00:00 8.1 3 Noroeste 12 Norte 0 -- -- 65
2021-01-12 07:00:00 7.9 3 Noroeste 10 Norte 0 -- -- 67
2021-01-12 06:00:00 7.5 0 Calma 6 Noroeste 0 -- -- 73
2021-01-12 05:00:00 6.7 0 Calma 4 Nordeste 0 -- -- 79
2021-01-12 04:00:00 6.8 0 Calma 5 Sudeste 0 -- -- 81
2021-01-12 03:00:00 6.9 0 Calma 3 Norte 0 -- -- 87
2021-01-12 02:00:00 7.5 0 Calma 4 Sudoeste 0 -- -- 85
2021-01-12 01:00:00 8.3 2 Este 5 Este 0 -- -- 85
2021-01-12 00:00:00 8.3 2 Norte 5 Nordeste 0 -- -- 86
2021-01-11 23:00:00 8.9 2 Norte 5 Norte 0 -- -- 85
2021-01-11 22:00:00 9.8 3 Norte 6 Nordeste 0 -- -- 84
2021-01-11 21:00:00 10 2 Sudeste 5 Nordeste 0 -- -- 84
2021-01-11 20:00:00 9.8 0 Calma 4 Norte 0 -- -- 82
2021-01-11 19:00:00 10.3 2 Nordeste 10 Sudeste 0 -- -- 77
2021-01-11 18:00:00 11.4 4 Este 19 Sudeste 0 -- -- 74
2021-01-11 17:00:00 11.4 12 Sudeste 24 Sudeste 0 -- -- 74
2021-01-11 16:00:00 11.3 21 Sudeste 26 Sudeste 0 -- -- 77
2021-01-11 15:00:00 11.4 15 Sudeste 24 Sudeste 0 -- -- 75
2021-01-11 14:00:00 11.1 21 Sudeste 28 Sudeste 0 -- -- 77
2021-01-11 13:00:00 10.8 17 Este 29 Este 0 -- -- 77
2021-01-11 12:00:00 11 19 Este 30 Sudeste 0 -- -- 73
2021-01-11 11:00:00 13.2 10 Este 28 Este 0 -- -- 60
2021-01-11 10:00:00 10.8 5 Noroeste 12 Nordeste 0 -- -- 71
2021-01-11 09:00:00 8 6 Norte 15 Este 0.4 -- -- 79
2021-01-11 08:00:00 8.5 3 Nordeste 6 Nordeste 0.4 -- -- 75
2021-01-11 07:00:00 8.5 4 Norte 15 Nordeste 0 -- -- 71
2021-01-11 06:00:00 7.9 8 Norte 18 Norte 0 -- -- 75
2021-01-11 05:00:00 9 3 Nordeste 16 Noroeste 1.4 -- -- 73
2021-01-11 04:00:00 9.1 4 Norte 11 Este 0.6 -- -- 67
2021-01-11 03:00:00 9.1 3 Norte 9 Este 0 -- -- 62
2021-01-11 02:00:00 8.3 3 Nordeste 8 Norte 0 -- -- 68
2021-01-11 01:00:00 8 2 Nordeste 14 Nordeste 0 -- -- 71
2021-01-11 00:00:00 8.5 6 Norte 17 Norte 0 -- -- 65
2021-01-10 23:00:00 8 4 Nordeste 9 Nordeste 0 -- -- 70
2021-01-10 22:00:00 8.1 5 Nordeste 10 Nordeste 0 -- -- 74
2021-01-10 21:00:00 8 2 Norte 7 Nordeste 0 -- -- 77
2021-01-10 20:00:00 8.1 3 Nordeste 9 Nordeste 0 -- -- 78
2021-01-10 19:00:00 9.2 5 Nordeste 8 Nordeste 0 -- -- 73
2021-01-10 18:00:00 10.4 2 Oeste 4 Oeste 0 -- -- 64
2021-01-10 17:00:00 11.4 0 Calma 5 Sudeste 0 -- -- 62
2021-01-10 16:00:00 12 0 Calma 8 Sudeste 0 -- -- 60
2021-01-10 15:00:00 11.4 2 Sur 13 Sudeste 0 -- -- 61
2021-01-10 14:00:00 10.9 6 Sur 10 Sudeste 0 -- -- 63
2021-01-10 13:00:00 11.8 3 Sur 6 Sur 0 -- -- 58
2021-01-10 12:00:00 11.3 0 Calma 4 Nordeste 0 -- -- 66
2021-01-10 11:00:00 9.3 3 Nordeste 8 Nordeste 0.2 -- -- 73
2021-01-10 10:00:00 7.8 2 Sudeste 5 Sudoeste 0 -- -- 80
2021-01-10 09:00:00 6.3 3 Nordeste 8 Nordeste 0 -- -- 85
2021-01-10 08:00:00 6.2 4 Nordeste 20 Nordeste 0.8 -- -- 84
2021-01-10 07:00:00 6.3 4 Noroeste 24 Noroeste 1.8 -- -- 88
2021-01-10 06:00:00 6.9 4 Nordeste 8 Nordeste 0 -- -- 89
2021-01-10 05:00:00 6.7 3 Nordeste 8 Nordeste 0 -- -- 90
2021-01-10 04:00:00 6.4 5 Nordeste 9 Nordeste 0 -- -- 89
2021-01-10 03:00:00 6.5 0 Calma 14 Nordeste 0 -- -- 89
2021-01-10 02:00:00 7.4 8 Nordeste 16 Nordeste 2.6 -- -- 90
2021-01-10 01:00:00 8 4 Noroeste 9 Noroeste 0.8 -- -- 88
2021-01-10 00:00:00 8.3 4 Nordeste 12 Nordeste 1.6 -- -- 88
2021-01-09 23:00:00 8.4 4 Nordeste 14 Noroeste 1 -- -- 84
2021-01-09 22:00:00 9.9 7 Oeste 22 Sudoeste 0 -- -- 72
2021-01-09 21:00:00 11.3 10 Sudoeste 26 Sudoeste 0 -- -- 58
2021-01-09 20:00:00 11.7 8 Sudoeste 22 Sudoeste 0 -- -- 65
2021-01-09 19:00:00 11.2 2 Nordeste 18 Oeste 0 -- -- 55
2021-01-09 18:00:00 11.9 12 Oeste 30 Oeste 0 -- -- 46
2021-01-09 17:00:00 13.1 13 Oeste 35 Oeste 0 -- -- 44
2021-01-09 16:00:00 13.5 15 Oeste 40 Oeste 0 -- -- 49
2021-01-09 15:00:00 13.1 20 Oeste 42 Oeste 0 -- -- 49
2021-01-09 14:00:00 13.3 19 Oeste 37 Oeste 0 -- -- 46
2021-01-09 13:00:00 13.1 18 Oeste 37 Oeste 0 -- -- 52
2021-01-09 12:00:00 13.1 21 Oeste 60 Oeste 0 -- -- 50
2021-01-09 11:00:00 12.7 21 Oeste 44 Oeste 0 -- -- 62
2021-01-09 10:00:00 12 22 Oeste 53 Oeste 0 -- -- 66
2021-01-09 09:00:00 12.1 15 Oeste 29 Oeste 0 -- -- 72
2021-01-09 08:00:00 12.2 14 Oeste 34 Oeste 0 -- -- 69
2021-01-09 07:00:00 13 19 Oeste 36 Oeste 0 -- -- 65
2021-01-09 06:00:00 13 17 Oeste 29 Oeste 0 -- -- 68
2021-01-09 05:00:00 13.1 17 Oeste 36 Oeste 0 -- -- 74
2021-01-09 04:00:00 12.5 2 Oeste 23 Oeste 0 -- -- 83
2021-01-09 03:00:00 13.2 10 Oeste 24 Sudeste 0 -- -- 81
2021-01-09 02:00:00 13.5 16 Sudeste 41 Sudeste 0 -- -- 83
2021-01-09 01:00:00 13.1 25 Sudeste 52 Este 0.2 -- -- 84
2021-01-09 00:00:00 13.5 39 Este 70 Este 0 -- -- 79
2021-01-08 23:00:00 13.9 40 Este 66 Este 0.2 -- -- 76
2021-01-08 22:00:00 14 32 Este 48 Este 0 -- -- 75
2021-01-08 21:00:00 13.9 11 Este 34 Nordeste 0 -- -- 76
2021-01-08 20:00:00 13.7 19 Este 36 Este 0.2 -- -- 78
2021-01-08 19:00:00 14.3 18 Este 32 Sudeste 0 -- -- 75
2021-01-08 18:00:00 13.7 18 Este 32 Este 0.2 -- -- 79
2021-01-08 17:00:00 14.4 9 Nordeste 30 Sudeste 0 -- -- 73
2021-01-08 16:00:00 14.2 6 Noroeste 23 Norte 0 -- -- 76
2021-01-08 15:00:00 13.5 7 Nordeste 22 Sudeste 0.8 -- -- 79
2021-01-08 14:00:00 13.1 4 Sudeste 30 Este 0.8 -- -- 81
2021-01-08 13:00:00 13.7 15 Este 44 Este 0 -- -- 75
2021-01-08 12:00:00 13.2 11 Sudeste 22 Este 0 -- -- 80
2021-01-08 11:00:00 11.9 3 Sudeste 33 Este 0 -- -- 86
2021-01-08 10:00:00 11.4 17 Este 36 Sudeste 0.4 -- -- 89
2021-01-08 09:00:00 11.1 3 Noroeste 16 Sudeste 1.2 -- -- 91
2021-01-08 08:00:00 11.3 7 Nordeste 29 Este 2.6 -- -- 91
2021-01-08 07:00:00 10.6 3 Sudoeste 6 Noroeste 1.4 -- -- 95
2021-01-08 06:00:00 10.2 0 Calma 4 Sudoeste 0.4 -- -- 94
2021-01-08 05:00:00 10.3 0 Calma 14 Sudeste 0.4 -- -- 94
2021-01-08 04:00:00 10.2 2 Norte 6 Noroeste 0.4 -- -- 94
2021-01-08 03:00:00 10 5 Noroeste 9 Noroeste 0.6 -- -- 94
2021-01-08 02:00:00 10.2 3 Este 5 Este 2.8 -- -- 93
2021-01-08 01:00:00 10.5 0 Calma 17 Este 4.4 -- -- 93
2021-01-08 00:00:00 10.9 17 Este 26 Este 2.8 -- -- 92
2021-01-07 23:00:00 11.1 11 Este 19 Este 1.8 -- -- 91
2021-01-07 22:00:00 10.8 3 Sur 17 Este 0.6 -- -- 91
2021-01-07 21:00:00 11.5 14 Este 22 Este 0.6 -- -- 90
2021-01-07 20:00:00 11 3 Norte 5 Norte 0 -- -- 91
2021-01-07 19:00:00 11.1 0 Calma 8 Noroeste 0 -- -- 90
2021-01-07 18:00:00 11.6 3 Sudoeste 8 Norte 0 -- -- 88
2021-01-07 17:00:00 11.9 0 Calma 5 Oeste 0 -- -- 87
2021-01-07 16:00:00 11.8 0 Calma 9 Oeste 0 -- -- 87
2021-01-07 15:00:00 11.5 3 Oeste 7 Oeste 0 -- -- 89
2021-01-07 14:00:00 11 3 Noroeste 13 Oeste 0.2 -- -- 90
2021-01-07 13:00:00 10.8 4 Noroeste 12 Oeste 0.2 -- -- 91
2021-01-07 12:00:00 10.9 3 Oeste 8 Nordeste 0 -- -- 89
2021-01-07 11:00:00 10.7 4 Nordeste 13 Oeste 0 -- -- 89
2021-01-07 10:00:00 10.4 3 Sudoeste 8 Noroeste 0 -- -- 89
2021-01-07 09:00:00 10.4 2 Noroeste 7 Oeste 0 -- -- 87
2021-01-07 08:00:00 10.2 0 Calma 9 Nordeste 0 -- -- 85
2021-01-07 07:00:00 9.9 0 Calma 7 Oeste 0 -- -- 86
2021-01-07 06:00:00 9.5 4 Noroeste 7 Oeste 0 -- -- 87
2021-01-07 05:00:00 9.6 2 Nordeste 11 Oeste 0.2 -- -- 84
2021-01-07 04:00:00 10.1 3 Sudoeste 13 Oeste 0.6 -- -- 82
2021-01-07 03:00:00 9.8 4 Oeste 9 Oeste 1 -- -- 84
2021-01-07 02:00:00 9.9 2 Norte 16 Oeste 1.8 -- -- 82
2021-01-07 01:00:00 10.5 5 Sudoeste 11 Nordeste 0 -- -- 76
2021-01-07 00:00:00 10.4 5 Nordeste 21 Este 0.4 -- -- 75
2021-01-06 23:00:00 10.6 7 Nordeste 16 Sudeste 0.4 -- -- 74
2021-01-06 22:00:00 11.2 2 Nordeste 17 Este 0.2 -- -- 69
2021-01-06 21:00:00 12 9 Nordeste 19 Nordeste 0 -- -- 66
2021-01-06 20:00:00 11.1 4 Nordeste 19 Este 0 -- -- 71
2021-01-06 19:00:00 11.6 11 Nordeste 28 Este 0 -- -- 69
2021-01-06 18:00:00 12.6 10 Este 29 Este 0 -- -- 60
2021-01-06 17:00:00 12.9 15 Este 26 Este 0 -- -- 60
2021-01-06 16:00:00 13 19 Este 35 Sudeste 0 -- -- 55
2021-01-06 15:00:00 13.4 18 Sudeste 30 Sudeste 0 -- -- 52
2021-01-06 14:00:00 12.8 23 Sudeste 37 Este 0 -- -- 54
2021-01-06 13:00:00 13 18 Este 30 Sudeste 0 -- -- 46
2021-01-06 12:00:00 12.6 8 Este 14 Este 0 -- -- 45
2021-01-06 11:00:00 11.5 3 Norte 6 Nordeste 0 -- -- 56
2021-01-06 10:00:00 11 3 Nordeste 8 Norte 0 -- -- 59
2021-01-06 09:00:00 10 4 Nordeste 13 Nordeste 0 -- -- 62
2021-01-06 08:00:00 9.8 4 Nordeste 10 Nordeste 0 -- -- 63
2021-01-06 07:00:00 9.8 5 Norte 9 Este 0 -- -- 61
2021-01-06 06:00:00 10.7 3 Nordeste 9 Este 0 -- -- 58
2021-01-06 05:00:00 10.4 3 Nordeste 10 Norte 0 -- -- 61
2021-01-06 04:00:00 10.2 4 Nordeste 9 Este 0 -- -- 64
2021-01-06 03:00:00 10.1 3 Norte 8 Norte 0 -- -- 68
2021-01-06 02:00:00 10.8 3 Norte 9 Este 0 -- -- 66
2021-01-06 01:00:00 11.2 3 Nordeste 9 Este 0 -- -- 66
2021-01-06 00:00:00 11.6 5 Nordeste 13 Este 0 -- -- 64
2021-01-05 23:00:00 11.8 5 Este 14 Este 0 -- -- 63
2021-01-05 22:00:00 11.6 5 Nordeste 17 Este 0 -- -- 62
2021-01-05 21:00:00 11.5 7 Nordeste 18 Este 0 -- -- 64
2021-01-05 20:00:00 11.4 9 Este 18 Este 0 -- -- 65
2021-01-05 19:00:00 11.8 12 Este 28 Este 0 -- -- 67
2021-01-05 18:00:00 12.3 21 Este 30 Este 0 -- -- 67
2021-01-05 17:00:00 12.5 18 Este 31 Sudeste 0 -- -- 67
2021-01-05 16:00:00 12.8 19 Sudeste 28 Sudeste 0 -- -- 67
2021-01-05 15:00:00 12.7 22 Sudeste 28 Sudeste 0 -- -- 69
2021-01-05 14:00:00 13.3 21 Sudeste 26 Sudeste 0 -- -- 62
2021-01-05 13:00:00 13.7 16 Sudeste 21 Sudeste 0 -- -- 56
2021-01-05 12:00:00 14.6 8 Sudeste 10 Sudeste 0 -- -- 43
2021-01-05 11:00:00 16.6 0 Calma 9 Norte 0 -- -- 34
2021-01-05 10:00:00 10.2 5 Nordeste 12 Nordeste 0 -- -- 49
2021-01-05 09:00:00 8.6 4 Nordeste 8 Norte 0 -- -- 55
2021-01-05 08:00:00 8.9 3 Noroeste 9 Noroeste 0 -- -- 54
2021-01-05 07:00:00 10.1 2 Nordeste 19 Norte 0 -- -- 49
2021-01-05 06:00:00 10 7 Nordeste 19 Norte 0 -- -- 50
2021-01-05 05:00:00 9.4 3 Norte 19 Nordeste 0 -- -- 51
2021-01-05 04:00:00 9.6 7 Norte 20 Norte 0 -- -- 52
2021-01-05 03:00:00 8.7 5 Norte 10 Norte 0 -- -- 54
2021-01-05 02:00:00 9 3 Sudoeste 9 Sudoeste 0 -- -- 54
2021-01-05 01:00:00 10.3 6 Norte 21 Noroeste 0 -- -- 51
2021-01-05 00:00:00 11.2 13 Noroeste 23 Noroeste 0 -- -- 46
2021-01-04 23:00:00 11.6 18 Noroeste 32 Noroeste 0 -- -- 45
2021-01-04 22:00:00 11.2 13 Oeste 27 Oeste 0 -- -- 44
2021-01-04 21:00:00 11 12 Noroeste 21 Noroeste 0 -- -- 44
2021-01-04 20:00:00 11.2 11 Oeste 30 Noroeste 0 -- -- 44
2021-01-04 19:00:00 11.6 15 Noroeste 25 Noroeste 0 -- -- 43
2021-01-04 18:00:00 12.7 10 Oeste 25 Oeste 0 -- -- 38
2021-01-04 17:00:00 14.1 20 Oeste 44 Oeste 0 -- -- 45
2021-01-04 16:00:00 14.2 25 Oeste 51 Oeste 0 -- -- 40
2021-01-04 15:00:00 14.3 24 Oeste 46 Oeste 0 -- -- 47
2021-01-04 14:00:00 14.1 20 Oeste 41 Oeste 0 -- -- 45
2021-01-04 13:00:00 14.2 10 Oeste 26 Sudoeste 0 -- -- 45
2021-01-04 12:00:00 13.6 10 Oeste 24 Sudoeste 0 -- -- 48
2021-01-04 11:00:00 13 13 Noroeste 23 Noroeste 0 -- -- 39
2021-01-04 10:00:00 11.9 11 Noroeste 26 Noroeste 0 -- -- 40
2021-01-04 09:00:00 9.8 9 Norte 23 Noroeste 0 -- -- 44
2021-01-04 08:00:00 8.5 6 Norte 15 Noroeste 0 -- -- 46
2021-01-04 07:00:00 8 8 Noroeste 13 Oeste 0 -- -- 47
2021-01-04 06:00:00 7.5 6 Noroeste 10 Noroeste 0 -- -- 52
2021-01-04 05:00:00 7.9 5 Noroeste 12 Norte 0 -- -- 52
2021-01-04 04:00:00 8.8 6 Noroeste 18 Norte 0 -- -- 48
2021-01-04 03:00:00 8.9 6 Norte 19 Norte 0 -- -- 47
2021-01-04 02:00:00 9.2 6 Norte 22 Norte 0 -- -- 43
2021-01-04 01:00:00 9.2 8 Norte 18 Norte 0 -- -- 39
2021-01-04 00:00:00 8.3 3 Norte 9 Noroeste 0 -- -- 38
2021-01-03 23:00:00 8.6 4 Norte 14 Norte 0 -- -- 36
2021-01-03 22:00:00 9.6 5 Noroeste 21 Noroeste 0 -- -- 34
2021-01-03 21:00:00 9.8 5 Noroeste 9 Norte 0 -- -- 36
2021-01-03 20:00:00 9.8 2 Norte 13 Noroeste 0 -- -- 40
2021-01-03 19:00:00 11.3 5 Oeste 13 Noroeste 0 -- -- 31
2021-01-03 18:00:00 12.8 3 Nordeste 18 Norte 0 -- -- 27
2021-01-03 17:00:00 14.8 10 Noroeste 30 Noroeste 3.2 -- -- 22
2021-01-03 16:00:00 15.3 16 Noroeste 39 Noroeste 0 -- -- 20
2021-01-03 15:00:00 15.6 5 Sudoeste 16 Norte 0 -- -- 25
2021-01-03 14:00:00 14.8 8 Oeste 27 Sudoeste 0 -- -- 32
2021-01-03 13:00:00 13.7 8 Sudoeste 18 Oeste 0 -- -- 36
2021-01-03 12:00:00 13.4 7 Norte 35 Norte 0 -- -- 23
2021-01-03 11:00:00 11.5 16 Norte 41 Norte 0 -- -- 28
2021-01-03 10:00:00 10 15 Norte 44 Nordeste 0 -- -- 33
2021-01-03 09:00:00 8.9 17 Norte 41 Norte 0 -- -- 33
2021-01-03 08:00:00 7.7 13 Noroeste 29 Noroeste 0 -- -- 38
2021-01-03 07:00:00 8.4 7 Nordeste 17 Nordeste 0 -- -- 38
2021-01-03 06:00:00 7.7 3 Noroeste 21 Norte 0 -- -- 39
2021-01-03 05:00:00 7.6 7 Norte 17 Nordeste 0 -- -- 46
2021-01-03 04:00:00 7.9 4 Sudeste 18 Este 0 -- -- 48
2021-01-03 03:00:00 8.9 7 Norte 23 Noroeste 0 -- -- 42
2021-01-03 02:00:00 9.2 8 Norte 38 Noroeste 0 -- -- 41
2021-01-03 01:00:00 9.6 26 Noroeste 46 Noroeste 0 -- -- 40
2021-01-03 00:00:00 9.7 33 Noroeste 49 Oeste 0 -- -- 43
2021-01-02 23:00:00 9.4 21 Oeste 37 Noroeste 0 -- -- 47
2021-01-02 22:00:00 9.4 17 Noroeste 32 Noroeste 0 -- -- 46
2021-01-02 21:00:00 9.7 8 Noroeste 30 Noroeste 0 -- -- 40
2021-01-02 20:00:00 10.3 15 Noroeste 36 Noroeste 0 -- -- 34
2021-01-02 19:00:00 11.1 15 Noroeste 42 Noroeste 0 -- -- 32
2021-01-02 18:00:00 11.6 14 Noroeste 35 Norte 0 -- -- 34
2021-01-02 17:00:00 12.6 17 Noroeste 40 Noroeste 0 -- -- 35
2021-01-02 16:00:00 13.4 15 Norte 34 Norte 0 -- -- 33
2021-01-02 15:00:00 13.7 12 Norte 33 Noroeste 0 -- -- 33
2021-01-02 14:00:00 13.1 17 Norte 31 Norte 0 -- -- 34